sensor_id;sensor_type;location;lat;lon;timestamp;P1;durP1;ratioP1;P2;durP2;ratioP2
9918;SDS011;4998;51.024;13.828;2024-03-23T00:55:07;8.90;;;6.17;;
9918;SDS011;4998;51.024;13.828;2024-03-23T00:57:34;7.40;;;6.07;;
9918;SDS011;4998;51.024;13.828;2024-03-23T01:00:01;6.37;;;5.80;;
9918;SDS011;4998;51.024;13.828;2024-03-23T01:02:31;6.73;;;5.70;;
9918;SDS011;4998;51.024;13.828;2024-03-23T01:04:57;7.00;;;6.27;;
9918;SDS011;4998;51.024;13.828;2024-03-23T01:07:24;7.90;;;6.60;;
9918;SDS011;4998;51.024;13.828;2024-03-23T01:09:51;7.67;;;6.30;;
9918;SDS011;4998;51.024;13.828;2024-03-23T01:12:18;6.90;;;6.20;;
9918;SDS011;4998;51.024;13.828;2024-03-23T01:14:44;12.57;;;6.93;;
9918;SDS011;4998;51.024;13.828;2024-03-23T01:17:11;7.73;;;6.27;;
9918;SDS011;4998;51.024;13.828;2024-03-23T01:19:37;8.23;;;6.57;;
9918;SDS011;4998;51.024;13.828;2024-03-23T01:22:06;7.90;;;6.77;;
9918;SDS011;4998;51.024;13.828;2024-03-23T01:24:32;9.57;;;8.13;;
9918;SDS011;4998;51.024;13.828;2024-03-23T01:27:00;9.90;;;8.10;;
9918;SDS011;4998;51.024;13.828;2024-03-23T01:29:27;9.97;;;7.40;;
9918;SDS011;4998;51.024;13.828;2024-03-23T01:31:54;9.50;;;7.53;;
9918;SDS011;4998;51.024;13.828;2024-03-23T01:34:20;9.40;;;7.77;;
9918;SDS011;4998;51.024;13.828;2024-03-23T01:36:47;9.00;;;7.70;;
9918;SDS011;4998;51.024;13.828;2024-03-23T01:39:13;10.90;;;8.10;;
9918;SDS011;4998;51.024;13.828;2024-03-23T01:41:40;11.37;;;8.63;;
9918;SDS011;4998;51.024;13.828;2024-03-23T01:44:09;9.57;;;8.10;;
9918;SDS011;4998;51.024;13.828;2024-03-23T01:46:37;9.40;;;7.90;;
9918;SDS011;4998;51.024;13.828;2024-03-23T01:49:04;11.43;;;7.47;;
9918;SDS011;4998;51.024;13.828;2024-03-23T01:51:31;8.37;;;7.03;;
9918;SDS011;4998;51.024;13.828;2024-03-23T01:53:58;8.47;;;7.50;;
9918;SDS011;4998;51.024;13.828;2024-03-23T01:56:28;8.40;;;7.50;;
9918;SDS011;4998;51.024;13.828;2024-03-23T01:58:55;9.07;;;7.37;;
9918;SDS011;4998;51.024;13.828;2024-03-23T02:01:23;10.40;;;7.50;;
9918;SDS011;4998;51.024;13.828;2024-03-23T02:03:50;9.67;;;7.37;;
9918;SDS011;4998;51.024;13.828;2024-03-23T02:06:17;8.13;;;7.10;;
9918;SDS011;4998;51.024;13.828;2024-03-23T02:08:43;11.37;;;7.70;;
9918;SDS011;4998;51.024;13.828;2024-03-23T02:11:10;7.43;;;6.70;;
9918;SDS011;4998;51.024;13.828;2024-03-23T02:13:36;9.43;;;7.50;;
9918;SDS011;4998;51.024;13.828;2024-03-23T02:16:04;8.53;;;7.03;;
9918;SDS011;4998;51.024;13.828;2024-03-23T02:18:32;8.10;;;7.30;;
9918;SDS011;4998;51.024;13.828;2024-03-23T02:20:59;7.50;;;6.57;;
9918;SDS011;4998;51.024;13.828;2024-03-23T02:23:27;7.67;;;6.90;;
9918;SDS011;4998;51.024;13.828;2024-03-23T02:25:54;11.60;;;7.50;;
9918;SDS011;4998;51.024;13.828;2024-03-23T02:28:20;8.10;;;7.03;;
9918;SDS011;4998;51.024;13.828;2024-03-23T02:30:47;8.33;;;7.10;;
9918;SDS011;4998;51.024;13.828;2024-03-23T02:33:13;7.50;;;6.70;;
9918;SDS011;4998;51.024;13.828;2024-03-23T02:35:41;8.80;;;7.10;;
9918;SDS011;4998;51.024;13.828;2024-03-23T02:38:07;9.10;;;6.97;;
9918;SDS011;4998;51.024;13.828;2024-03-23T02:40:35;6.73;;;6.03;;
9918;SDS011;4998;51.024;13.828;2024-03-23T02:43:02;8.37;;;6.73;;
9918;SDS011;4998;51.024;13.828;2024-03-23T02:45:29;10.13;;;7.30;;
9918;SDS011;4998;51.024;13.828;2024-03-23T02:47:55;7.93;;;7.13;;
9918;SDS011;4998;51.024;13.828;2024-03-23T02:50:23;9.03;;;7.40;;
9918;SDS011;4998;51.024;13.828;2024-03-23T02:52:49;8.37;;;7.47;;
9918;SDS011;4998;51.024;13.828;2024-03-23T02:55:17;7.97;;;6.97;;
9918;SDS011;4998;51.024;13.828;2024-03-23T02:57:44;9.03;;;7.00;;
9918;SDS011;4998;51.024;13.828;2024-03-23T03:00:12;8.20;;;7.23;;
9918;SDS011;4998;51.024;13.828;2024-03-23T03:02:39;9.73;;;7.80;;
9918;SDS011;4998;51.024;13.828;2024-03-23T03:05:06;7.60;;;6.83;;
9918;SDS011;4998;51.024;13.828;2024-03-23T03:07:34;8.10;;;7.10;;
9918;SDS011;4998;51.024;13.828;2024-03-23T03:10:03;10.20;;;7.40;;
9918;SDS011;4998;51.024;13.828;2024-03-23T03:12:31;8.43;;;6.80;;
9918;SDS011;4998;51.024;13.828;2024-03-23T03:15:00;11.13;;;6.80;;
9918;SDS011;4998;51.024;13.828;2024-03-23T03:17:26;9.80;;;7.93;;
9918;SDS011;4998;51.024;13.828;2024-03-23T03:19:53;9.40;;;7.93;;
9918;SDS011;4998;51.024;13.828;2024-03-23T03:22:20;9.13;;;8.13;;
9918;SDS011;4998;51.024;13.828;2024-03-23T03:24:48;8.37;;;6.87;;
9918;SDS011;4998;51.024;13.828;2024-03-23T03:27:14;9.27;;;7.70;;
9918;SDS011;4998;51.024;13.828;2024-03-23T03:29:41;8.33;;;7.03;;
9918;SDS011;4998;51.024;13.828;2024-03-23T03:32:08;10.17;;;8.27;;
9918;SDS011;4998;51.024;13.828;2024-03-23T03:34:35;9.80;;;8.30;;
9918;SDS011;4998;51.024;13.828;2024-03-23T03:37:01;11.10;;;8.97;;
9918;SDS011;4998;51.024;13.828;2024-03-23T03:39:29;10.03;;;7.80;;
9918;SDS011;4998;51.024;13.828;2024-03-23T03:41:55;12.20;;;9.30;;
9918;SDS011;4998;51.024;13.828;2024-03-23T03:44:22;10.70;;;8.33;;
9918;SDS011;4998;51.024;13.828;2024-03-23T03:46:48;10.00;;;8.57;;
9918;SDS011;4998;51.024;13.828;2024-03-23T03:49:16;10.13;;;8.33;;
9918;SDS011;4998;51.024;13.828;2024-03-23T03:51:42;9.90;;;7.83;;
9918;SDS011;4998;51.024;13.828;2024-03-23T03:54:09;9.50;;;8.33;;
9918;SDS011;4998;51.024;13.828;2024-03-23T03:56:35;9.60;;;8.37;;
9918;SDS011;4998;51.024;13.828;2024-03-23T03:59:03;10.13;;;7.87;;
9918;SDS011;4998;51.024;13.828;2024-03-23T04:01:29;9.57;;;8.57;;
9918;SDS011;4998;51.024;13.828;2024-03-23T04:03:56;9.70;;;8.20;;
9918;SDS011;4998;51.024;13.828;2024-03-23T04:06:23;10.53;;;8.70;;
9918;SDS011;4998;51.024;13.828;2024-03-23T04:08:50;11.10;;;8.70;;
9918;SDS011;4998;51.024;13.828;2024-03-23T04:11:17;11.17;;;8.67;;
9918;SDS011;4998;51.024;13.828;2024-03-23T04:13:44;9.17;;;8.10;;
9918;SDS011;4998;51.024;13.828;2024-03-23T04:16:10;10.10;;;8.63;;
9918;SDS011;4998;51.024;13.828;2024-03-23T04:18:37;9.63;;;8.63;;
9918;SDS011;4998;51.024;13.828;2024-03-23T04:21:04;11.17;;;9.33;;
9918;SDS011;4998;51.024;13.828;2024-03-23T04:23:32;11.70;;;9.03;;
9918;SDS011;4998;51.024;13.828;2024-03-23T04:26:02;11.70;;;8.70;;
9918;SDS011;4998;51.024;13.828;2024-03-23T04:28:29;9.43;;;8.43;;
9918;SDS011;4998;51.024;13.828;2024-03-23T04:30:56;10.23;;;9.13;;
9918;SDS011;4998;51.024;13.828;2024-03-23T04:33:22;10.63;;;8.10;;
9918;SDS011;4998;51.024;13.828;2024-03-23T04:35:49;9.93;;;8.07;;
9918;SDS011;4998;51.024;13.828;2024-03-23T04:38:15;12.53;;;8.77;;
9918;SDS011;4998;51.024;13.828;2024-03-23T04:40:44;9.10;;;8.10;;
9918;SDS011;4998;51.024;13.828;2024-03-23T04:43:11;9.70;;;8.03;;
9918;SDS011;4998;51.024;13.828;2024-03-23T04:45:38;9.13;;;7.80;;
9918;SDS011;4998;51.024;13.828;2024-03-23T04:48:06;10.67;;;8.17;;
9918;SDS011;4998;51.024;13.828;2024-03-23T04:50:33;7.83;;;7.03;;
9918;SDS011;4998;51.024;13.828;2024-03-23T04:53:00;10.93;;;8.40;;
9918;SDS011;4998;51.024;13.828;2024-03-23T04:55:28;10.63;;;8.67;;
9918;SDS011;4998;51.024;13.828;2024-03-23T04:57:57;10.17;;;8.77;;
9918;SDS011;4998;51.024;13.828;2024-03-23T05:00:23;11.83;;;9.10;;
9918;SDS011;4998;51.024;13.828;2024-03-23T05:02:51;10.10;;;9.10;;
9918;SDS011;4998;51.024;13.828;2024-03-23T05:05:18;10.53;;;9.43;;
9918;SDS011;4998;51.024;13.828;2024-03-23T05:07:45;9.73;;;8.73;;
9918;SDS011;4998;51.024;13.828;2024-03-23T05:10:11;10.90;;;9.30;;
9918;SDS011;4998;51.024;13.828;2024-03-23T05:12:38;11.00;;;9.43;;
9918;SDS011;4998;51.024;13.828;2024-03-23T05:15:06;12.20;;;10.03;;
9918;SDS011;4998;51.024;13.828;2024-03-23T05:17:34;11.77;;;10.10;;
9918;SDS011;4998;51.024;13.828;2024-03-23T05:20:01;13.33;;;11.53;;
9918;SDS011;4998;51.024;13.828;2024-03-23T05:22:28;15.07;;;10.97;;
9918;SDS011;4998;51.024;13.828;2024-03-23T05:24:54;18.13;;;12.43;;
9918;SDS011;4998;51.024;13.828;2024-03-23T05:27:22;14.10;;;11.40;;
9918;SDS011;4998;51.024;13.828;2024-03-23T05:29:48;15.73;;;12.67;;
9918;SDS011;4998;51.024;13.828;2024-03-23T05:32:16;14.27;;;11.10;;
9918;SDS011;4998;51.024;13.828;2024-03-23T05:34:43;17.07;;;12.20;;
9918;SDS011;4998;51.024;13.828;2024-03-23T05:37:11;16.40;;;12.90;;
9918;SDS011;4998;51.024;13.828;2024-03-23T05:39:37;13.70;;;11.80;;
9918;SDS011;4998;51.024;13.828;2024-03-23T05:42:04;17.97;;;12.97;;
9918;SDS011;4998;51.024;13.828;2024-03-23T05:44:30;14.47;;;11.60;;
9918;SDS011;4998;51.024;13.828;2024-03-23T05:46:58;19.40;;;12.17;;
9918;SDS011;4998;51.024;13.828;2024-03-23T05:49:25;14.00;;;11.50;;
9918;SDS011;4998;51.024;13.828;2024-03-23T05:51:52;13.40;;;10.70;;
9918;SDS011;4998;51.024;13.828;2024-03-23T05:54:20;15.43;;;11.20;;
9918;SDS011;4998;51.024;13.828;2024-03-23T05:56:47;14.30;;;11.17;;
9918;SDS011;4998;51.024;13.828;2024-03-23T05:59:13;17.50;;;11.50;;
9918;SDS011;4998;51.024;13.828;2024-03-23T06:01:40;12.40;;;10.33;;
9918;SDS011;4998;51.024;13.828;2024-03-23T06:04:06;12.83;;;11.03;;
9918;SDS011;4998;51.024;13.828;2024-03-23T06:06:35;12.30;;;10.10;;
9918;SDS011;4998;51.024;13.828;2024-03-23T06:09:01;14.90;;;11.00;;
9918;SDS011;4998;51.024;13.828;2024-03-23T06:11:28;12.33;;;10.13;;
9918;SDS011;4998;51.024;13.828;2024-03-23T06:13:54;13.43;;;10.87;;
9918;SDS011;4998;51.024;13.828;2024-03-23T06:16:22;13.40;;;10.80;;
9918;SDS011;4998;51.024;13.828;2024-03-23T06:18:49;13.40;;;10.80;;
9918;SDS011;4998;51.024;13.828;2024-03-23T06:21:16;12.20;;;10.07;;
9918;SDS011;4998;51.024;13.828;2024-03-23T06:23:44;12.17;;;10.50;;
9918;SDS011;4998;51.024;13.828;2024-03-23T06:26:16;12.20;;;10.00;;
9918;SDS011;4998;51.024;13.828;2024-03-23T06:28:42;12.53;;;10.33;;
9918;SDS011;4998;51.024;13.828;2024-03-23T06:31:09;13.60;;;11.37;;
9918;SDS011;4998;51.024;13.828;2024-03-23T06:33:35;12.17;;;10.87;;
9918;SDS011;4998;51.024;13.828;2024-03-23T06:36:02;13.10;;;10.60;;
9918;SDS011;4998;51.024;13.828;2024-03-23T06:38:29;13.37;;;10.83;;
9918;SDS011;4998;51.024;13.828;2024-03-23T06:40:58;13.27;;;10.40;;
9918;SDS011;4998;51.024;13.828;2024-03-23T06:43:24;14.00;;;11.30;;
9918;SDS011;4998;51.024;13.828;2024-03-23T06:45:54;14.57;;;10.53;;
9918;SDS011;4998;51.024;13.828;2024-03-23T06:48:20;14.67;;;11.13;;
9918;SDS011;4998;51.024;13.828;2024-03-23T06:50:48;17.70;;;12.20;;
9918;SDS011;4998;51.024;13.828;2024-03-23T06:53:14;12.97;;;11.10;;
9918;SDS011;4998;51.024;13.828;2024-03-23T06:55:41;15.60;;;12.47;;
9918;SDS011;4998;51.024;13.828;2024-03-23T06:58:16;16.50;;;13.10;;
9918;SDS011;4998;51.024;13.828;2024-03-23T07:00:43;18.40;;;13.37;;
9918;SDS011;4998;51.024;13.828;2024-03-23T07:03:09;14.93;;;12.23;;
9918;SDS011;4998;51.024;13.828;2024-03-23T07:05:36;16.60;;;12.87;;
9918;SDS011;4998;51.024;13.828;2024-03-23T07:08:03;16.67;;;13.03;;
9918;SDS011;4998;51.024;13.828;2024-03-23T07:10:30;15.63;;;11.00;;
9918;SDS011;4998;51.024;13.828;2024-03-23T07:12:56;13.73;;;11.57;;
9918;SDS011;4998;51.024;13.828;2024-03-23T07:15:25;16.10;;;13.00;;
9918;SDS011;4998;51.024;13.828;2024-03-23T07:17:51;13.80;;;11.30;;
9918;SDS011;4998;51.024;13.828;2024-03-23T07:20:18;15.67;;;10.57;;
9918;SDS011;4998;51.024;13.828;2024-03-23T07:22:45;12.97;;;10.70;;
9918;SDS011;4998;51.024;13.828;2024-03-23T07:25:12;13.30;;;11.50;;
9918;SDS011;4998;51.024;13.828;2024-03-23T07:27:38;14.30;;;11.63;;
9918;SDS011;4998;51.024;13.828;2024-03-23T07:30:06;14.27;;;11.10;;
9918;SDS011;4998;51.024;13.828;2024-03-23T07:32:36;14.53;;;11.50;;
9918;SDS011;4998;51.024;13.828;2024-03-23T07:35:02;14.70;;;10.50;;
9918;SDS011;4998;51.024;13.828;2024-03-23T07:37:29;14.10;;;11.23;;
9918;SDS011;4998;51.024;13.828;2024-03-23T07:39:56;18.47;;;11.20;;
9918;SDS011;4998;51.024;13.828;2024-03-23T07:42:24;14.93;;;10.50;;
9918;SDS011;4998;51.024;13.828;2024-03-23T07:44:51;14.80;;;10.63;;
9918;SDS011;4998;51.024;13.828;2024-03-23T07:47:20;14.63;;;11.10;;
9918;SDS011;4998;51.024;13.828;2024-03-23T07:49:47;17.53;;;14.03;;
9918;SDS011;4998;51.024;13.828;2024-03-23T07:52:14;15.83;;;12.63;;
9918;SDS011;4998;51.024;13.828;2024-03-23T07:54:40;16.50;;;11.77;;
9918;SDS011;4998;51.024;13.828;2024-03-23T07:57:07;13.27;;;10.77;;
9918;SDS011;4998;51.024;13.828;2024-03-23T07:59:34;14.37;;;11.80;;
9918;SDS011;4998;51.024;13.828;2024-03-23T08:02:01;14.23;;;10.93;;
9918;SDS011;4998;51.024;13.828;2024-03-23T08:04:27;13.37;;;11.20;;
9918;SDS011;4998;51.024;13.828;2024-03-23T08:06:55;12.63;;;10.03;;
9918;SDS011;4998;51.024;13.828;2024-03-23T08:09:22;12.20;;;10.17;;
9918;SDS011;4998;51.024;13.828;2024-03-23T08:11:49;12.80;;;10.10;;
9918;SDS011;4998;51.024;13.828;2024-03-23T08:14:15;11.10;;;9.20;;
9918;SDS011;4998;51.024;13.828;2024-03-23T08:16:42;12.40;;;10.97;;
9918;SDS011;4998;51.024;13.828;2024-03-23T08:19:13;19.10;;;15.33;;
9918;SDS011;4998;51.024;13.828;2024-03-23T08:21:39;13.60;;;10.90;;
9918;SDS011;4998;51.024;13.828;2024-03-23T08:24:08;12.83;;;10.40;;
9918;SDS011;4998;51.024;13.828;2024-03-23T08:26:34;12.87;;;10.07;;
9918;SDS011;4998;51.024;13.828;2024-03-23T08:29:02;13.20;;;10.03;;
9918;SDS011;4998;51.024;13.828;2024-03-23T08:31:29;12.47;;;10.10;;
9918;SDS011;4998;51.024;13.828;2024-03-23T08:33:55;11.80;;;10.40;;
9918;SDS011;4998;51.024;13.828;2024-03-23T08:36:22;12.13;;;9.63;;
9918;SDS011;4998;51.024;13.828;2024-03-23T08:38:49;10.57;;;9.20;;
9918;SDS011;4998;51.024;13.828;2024-03-23T08:41:20;15.97;;;11.20;;
9918;SDS011;4998;51.024;13.828;2024-03-23T08:43:46;11.23;;;9.40;;
9918;SDS011;4998;51.024;13.828;2024-03-23T08:46:14;11.50;;;9.50;;
9918;SDS011;4998;51.024;13.828;2024-03-23T08:48:41;13.63;;;10.00;;
9918;SDS011;4998;51.024;13.828;2024-03-23T08:51:10;11.67;;;9.00;;
9918;SDS011;4998;51.024;13.828;2024-03-23T08:53:37;11.70;;;9.33;;
9918;SDS011;4998;51.024;13.828;2024-03-23T08:56:05;11.53;;;9.63;;
9918;SDS011;4998;51.024;13.828;2024-03-23T08:58:33;12.37;;;9.40;;
9918;SDS011;4998;51.024;13.828;2024-03-23T09:01:04;12.50;;;9.50;;
9918;SDS011;4998;51.024;13.828;2024-03-23T09:03:33;10.50;;;9.03;;
9918;SDS011;4998;51.024;13.828;2024-03-23T09:06:00;10.60;;;9.20;;
9918;SDS011;4998;51.024;13.828;2024-03-23T09:08:27;11.47;;;8.63;;
9918;SDS011;4998;51.024;13.828;2024-03-23T09:10:53;12.33;;;9.23;;
9918;SDS011;4998;51.024;13.828;2024-03-23T09:13:21;11.20;;;8.87;;
9918;SDS011;4998;51.024;13.828;2024-03-23T09:15:48;11.07;;;9.27;;
9918;SDS011;4998;51.024;13.828;2024-03-23T09:18:16;10.07;;;8.80;;
9918;SDS011;4998;51.024;13.828;2024-03-23T09:20:44;9.87;;;8.70;;
9918;SDS011;4998;51.024;13.828;2024-03-23T09:23:10;12.00;;;9.27;;
9918;SDS011;4998;51.024;13.828;2024-03-23T09:25:37;12.60;;;10.20;;
9918;SDS011;4998;51.024;13.828;2024-03-23T09:28:04;11.57;;;9.87;;
9918;SDS011;4998;51.024;13.828;2024-03-23T09:30:32;12.53;;;9.93;;
9918;SDS011;4998;51.024;13.828;2024-03-23T09:32:59;13.37;;;10.53;;
9918;SDS011;4998;51.024;13.828;2024-03-23T09:35:27;12.40;;;9.47;;
9918;SDS011;4998;51.024;13.828;2024-03-23T09:37:53;10.90;;;9.10;;
9918;SDS011;4998;51.024;13.828;2024-03-23T09:40:20;11.07;;;9.10;;
9918;SDS011;4998;51.024;13.828;2024-03-23T09:42:49;11.87;;;8.80;;
9918;SDS011;4998;51.024;13.828;2024-03-23T09:45:17;10.80;;;8.73;;
9918;SDS011;4998;51.024;13.828;2024-03-23T09:47:46;13.10;;;9.00;;
9918;SDS011;4998;51.024;13.828;2024-03-23T09:50:17;9.70;;;8.43;;
9918;SDS011;4998;51.024;13.828;2024-03-23T09:52:43;15.40;;;10.37;;
9918;SDS011;4998;51.024;13.828;2024-03-23T09:55:12;12.97;;;10.33;;
9918;SDS011;4998;51.024;13.828;2024-03-23T09:57:39;14.07;;;11.50;;
9918;SDS011;4998;51.024;13.828;2024-03-23T10:00:06;11.10;;;9.83;;
9918;SDS011;4998;51.024;13.828;2024-03-23T10:02:33;14.70;;;10.77;;
9918;SDS011;4998;51.024;13.828;2024-03-23T10:05:01;14.20;;;8.87;;
9918;SDS011;4998;51.024;13.828;2024-03-23T10:07:28;8.30;;;5.07;;
9918;SDS011;4998;51.024;13.828;2024-03-23T10:09:56;6.27;;;3.80;;
9918;SDS011;4998;51.024;13.828;2024-03-23T10:12:22;3.97;;;2.63;;
9918;SDS011;4998;51.024;13.828;2024-03-23T10:14:50;3.30;;;2.07;;
9918;SDS011;4998;51.024;13.828;2024-03-23T10:17:18;1.93;;;1.70;;
9918;SDS011;4998;51.024;13.828;2024-03-23T10:19:45;4.13;;;1.90;;
9918;SDS011;4998;51.024;13.828;2024-03-23T10:22:18;1.87;;;1.37;;
9918;SDS011;4998;51.024;13.828;2024-03-23T10:24:46;1.00;;;1.00;;
9918;SDS011;4998;51.024;13.828;2024-03-23T10:27:15;1.57;;;1.10;;
9918;SDS011;4998;51.024;13.828;2024-03-23T10:29:43;0.80;;;0.80;;
9918;SDS011;4998;51.024;13.828;2024-03-23T10:32:10;0.97;;;0.90;;
9918;SDS011;4998;51.024;13.828;2024-03-23T10:34:38;0.90;;;0.90;;
9918;SDS011;4998;51.024;13.828;2024-03-23T10:37:05;0.87;;;0.70;;
9918;SDS011;4998;51.024;13.828;2024-03-23T10:39:32;0.90;;;0.90;;
9918;SDS011;4998;51.024;13.828;2024-03-23T10:42:03;0.73;;;0.70;;
9918;SDS011;4998;51.024;13.828;2024-03-23T10:44:30;0.70;;;0.70;;
9918;SDS011;4998;51.024;13.828;2024-03-23T10:46:58;3.00;;;1.20;;
9918;SDS011;4998;51.024;13.828;2024-03-23T10:49:28;0.70;;;0.70;;
9918;SDS011;4998;51.024;13.828;2024-03-23T10:51:58;0.80;;;0.73;;
9918;SDS011;4998;51.024;13.828;2024-03-23T10:54:24;0.70;;;0.70;;
9918;SDS011;4998;51.024;13.828;2024-03-23T10:56:52;0.70;;;0.70;;
9918;SDS011;4998;51.024;13.828;2024-03-23T10:59:24;1.10;;;0.73;;
9918;SDS011;4998;51.024;13.828;2024-03-23T11:01:55;0.90;;;0.90;;
9918;SDS011;4998;51.024;13.828;2024-03-23T11:04:34;0.70;;;0.70;;
9918;SDS011;4998;51.024;13.828;2024-03-23T11:07:04;0.60;;;0.60;;
9918;SDS011;4998;51.024;13.828;2024-03-23T11:09:57;1.37;;;0.80;;
9918;SDS011;4998;51.024;13.828;2024-03-23T11:12:28;0.93;;;0.80;;
9918;SDS011;4998;51.024;13.828;2024-03-23T11:15:00;0.50;;;0.50;;
9918;SDS011;4998;51.024;13.828;2024-03-23T11:17:28;0.50;;;0.50;;
9918;SDS011;4998;51.024;13.828;2024-03-23T11:19:55;0.83;;;0.70;;
9918;SDS011;4998;51.024;13.828;2024-03-23T11:22:38;0.80;;;0.80;;
9918;SDS011;4998;51.024;13.828;2024-03-23T11:25:16;0.70;;;0.70;;
9918;SDS011;4998;51.024;13.828;2024-03-23T11:27:43;0.70;;;0.70;;
9918;SDS011;4998;51.024;13.828;2024-03-23T11:30:13;0.60;;;0.60;;
9918;SDS011;4998;51.024;13.828;2024-03-23T11:32:41;0.90;;;0.90;;
9918;SDS011;4998;51.024;13.828;2024-03-23T11:35:09;0.73;;;0.60;;
9918;SDS011;4998;51.024;13.828;2024-03-23T11:37:36;0.70;;;0.70;;
9918;SDS011;4998;51.024;13.828;2024-03-23T11:40:19;0.60;;;0.60;;
9918;SDS011;4998;51.024;13.828;2024-03-23T11:42:46;0.60;;;0.60;;
9918;SDS011;4998;51.024;13.828;2024-03-23T11:45:14;0.70;;;0.70;;
9918;SDS011;4998;51.024;13.828;2024-03-23T11:47:43;0.60;;;0.60;;
9918;SDS011;4998;51.024;13.828;2024-03-23T11:50:10;0.70;;;0.70;;
9918;SDS011;4998;51.024;13.828;2024-03-23T11:52:45;0.60;;;0.60;;
9918;SDS011;4998;51.024;13.828;2024-03-23T11:55:12;0.70;;;0.70;;
9918;SDS011;4998;51.024;13.828;2024-03-23T11:57:38;0.87;;;0.87;;
9918;SDS011;4998;51.024;13.828;2024-03-23T12:02:49;1.23;;;0.60;;
9918;SDS011;4998;51.024;13.828;2024-03-23T12:05:16;0.60;;;0.60;;
9918;SDS011;4998;51.024;13.828;2024-03-23T12:07:43;0.70;;;0.70;;
9918;SDS011;4998;51.024;13.828;2024-03-23T12:10:10;0.70;;;0.70;;
9918;SDS011;4998;51.024;13.828;2024-03-23T12:12:36;0.70;;;0.70;;
9918;SDS011;4998;51.024;13.828;2024-03-23T12:15:04;0.70;;;0.70;;
9918;SDS011;4998;51.024;13.828;2024-03-23T12:17:32;0.70;;;0.70;;
9918;SDS011;4998;51.024;13.828;2024-03-23T12:20:01;0.70;;;0.70;;
9918;SDS011;4998;51.024;13.828;2024-03-23T12:22:27;0.70;;;0.70;;
9918;SDS011;4998;51.024;13.828;2024-03-23T12:24:55;0.70;;;0.70;;
9918;SDS011;4998;51.024;13.828;2024-03-23T12:27:22;0.80;;;0.80;;
9918;SDS011;4998;51.024;13.828;2024-03-23T12:29:49;1.00;;;0.90;;
9918;SDS011;4998;51.024;13.828;2024-03-23T12:32:15;1.57;;;0.90;;
9918;SDS011;4998;51.024;13.828;2024-03-23T12:34:45;1.00;;;1.00;;
9918;SDS011;4998;51.024;13.828;2024-03-23T12:37:12;1.17;;;1.07;;
9918;SDS011;4998;51.024;13.828;2024-03-23T12:39:39;1.03;;;1.00;;
9918;SDS011;4998;51.024;13.828;2024-03-23T12:42:06;1.00;;;1.00;;
9918;SDS011;4998;51.024;13.828;2024-03-23T12:44:33;2.37;;;2.17;;
9918;SDS011;4998;51.024;13.828;2024-03-23T12:46:59;2.73;;;2.53;;
9918;SDS011;4998;51.024;13.828;2024-03-23T12:49:26;1.50;;;1.40;;
9918;SDS011;4998;51.024;13.828;2024-03-23T12:51:56;1.30;;;1.20;;
9918;SDS011;4998;51.024;13.828;2024-03-23T12:54:24;1.20;;;1.10;;
9918;SDS011;4998;51.024;13.828;2024-03-23T12:56:50;1.27;;;1.17;;
9918;SDS011;4998;51.024;13.828;2024-03-23T12:59:17;1.10;;;1.10;;
9918;SDS011;4998;51.024;13.828;2024-03-23T13:01:44;1.00;;;1.00;;
9918;SDS011;4998;51.024;13.828;2024-03-23T13:04:11;1.20;;;1.20;;
9918;SDS011;4998;51.024;13.828;2024-03-23T13:06:37;1.30;;;1.30;;
9918;SDS011;4998;51.024;13.828;2024-03-23T13:09:06;1.67;;;1.57;;
9918;SDS011;4998;51.024;13.828;2024-03-23T13:11:32;12.67;;;9.37;;
9918;SDS011;4998;51.024;13.828;2024-03-23T13:13:59;6.03;;;4.90;;
9918;SDS011;4998;51.024;13.828;2024-03-23T13:16:25;2.20;;;2.10;;
9918;SDS011;4998;51.024;13.828;2024-03-23T13:18:53;1.77;;;1.67;;
9918;SDS011;4998;51.024;13.828;2024-03-23T13:21:19;1.70;;;1.60;;
9918;SDS011;4998;51.024;13.828;2024-03-23T13:23:46;1.70;;;1.60;;
9918;SDS011;4998;51.024;13.828;2024-03-23T13:26:14;1.60;;;1.50;;
9918;SDS011;4998;51.024;13.828;2024-03-23T13:28:42;1.60;;;1.50;;
9918;SDS011;4998;51.024;13.828;2024-03-23T13:31:08;1.97;;;1.73;;
9918;SDS011;4998;51.024;13.828;2024-03-23T13:33:35;1.57;;;1.47;;
9918;SDS011;4998;51.024;13.828;2024-03-23T13:36:01;1.70;;;1.60;;
9918;SDS011;4998;51.024;13.828;2024-03-23T13:38:29;1.50;;;1.40;;
9918;SDS011;4998;51.024;13.828;2024-03-23T13:40:55;6.07;;;5.40;;
9918;SDS011;4998;51.024;13.828;2024-03-23T13:46:00;2.00;;;1.90;;
9918;SDS011;4998;51.024;13.828;2024-03-23T13:48:27;1.60;;;1.50;;
9918;SDS011;4998;51.024;13.828;2024-03-23T13:50:58;1.53;;;1.30;;
9918;SDS011;4998;51.024;13.828;2024-03-23T13:53:26;2.10;;;1.53;;
9918;SDS011;4998;51.024;13.828;2024-03-23T13:55:52;1.60;;;1.20;;
9918;SDS011;4998;51.024;13.828;2024-03-23T13:58:20;2.83;;;1.50;;
9918;SDS011;4998;51.024;13.828;2024-03-23T14:00:46;29.60;;;20.13;;
9918;SDS011;4998;51.024;13.828;2024-03-23T14:03:15;9.13;;;6.63;;
9918;SDS011;4998;51.024;13.828;2024-03-23T14:05:43;3.50;;;3.20;;
9918;SDS011;4998;51.024;13.828;2024-03-23T14:08:12;3.73;;;1.90;;
9918;SDS011;4998;51.024;13.828;2024-03-23T14:10:40;3.17;;;1.77;;
9918;SDS011;4998;51.024;13.828;2024-03-23T14:13:08;2.00;;;1.23;;
9918;SDS011;4998;51.024;13.828;2024-03-23T14:15:34;5.53;;;2.20;;
9918;SDS011;4998;51.024;13.828;2024-03-23T14:18:03;2.20;;;1.40;;
9918;SDS011;4998;51.024;13.828;2024-03-23T14:20:31;3.90;;;1.40;;
9918;SDS011;4998;51.024;13.828;2024-03-23T14:22:59;2.10;;;1.23;;
9918;SDS011;4998;51.024;13.828;2024-03-23T14:25:25;3.53;;;1.50;;
9918;SDS011;4998;51.024;13.828;2024-03-23T14:27:54;3.20;;;1.50;;
9918;SDS011;4998;51.024;13.828;2024-03-23T14:30:20;1.80;;;1.27;;
9918;SDS011;4998;51.024;13.828;2024-03-23T14:32:48;2.13;;;1.50;;
9918;SDS011;4998;51.024;13.828;2024-03-23T14:35:14;3.37;;;1.57;;
9918;SDS011;4998;51.024;13.828;2024-03-23T14:37:43;1.57;;;1.00;;
9918;SDS011;4998;51.024;13.828;2024-03-23T14:40:09;32.63;;;22.03;;
9918;SDS011;4998;51.024;13.828;2024-03-23T14:42:38;32.33;;;21.40;;
9918;SDS011;4998;51.024;13.828;2024-03-23T14:45:04;7.73;;;4.93;;
9918;SDS011;4998;51.024;13.828;2024-03-23T14:47:32;148.37;;;7.83;;
9918;SDS011;4998;51.024;13.828;2024-03-23T14:49:59;4.47;;;2.47;;
9918;SDS011;4998;51.024;13.828;2024-03-23T14:52:26;1.70;;;1.60;;
9918;SDS011;4998;51.024;13.828;2024-03-23T14:54:55;1.63;;;1.53;;
9918;SDS011;4998;51.024;13.828;2024-03-23T14:57:23;2.97;;;2.33;;
9918;SDS011;4998;51.024;13.828;2024-03-23T14:59:49;5.33;;;3.67;;
9918;SDS011;4998;51.024;13.828;2024-03-23T15:02:17;18.73;;;12.17;;
9918;SDS011;4998;51.024;13.828;2024-03-23T15:04:43;8.10;;;5.47;;
9918;SDS011;4998;51.024;13.828;2024-03-23T15:07:10;3.83;;;2.53;;
9918;SDS011;4998;51.024;13.828;2024-03-23T15:09:37;4.60;;;2.40;;
9918;SDS011;4998;51.024;13.828;2024-03-23T15:12:08;4.80;;;2.20;;
9918;SDS011;4998;51.024;13.828;2024-03-23T15:14:36;2.30;;;2.10;;
9918;SDS011;4998;51.024;13.828;2024-03-23T15:17:04;4.43;;;2.37;;
9918;SDS011;4998;51.024;13.828;2024-03-23T15:19:32;3.43;;;1.63;;
9918;SDS011;4998;51.024;13.828;2024-03-23T15:21:58;3.90;;;1.60;;
9918;SDS011;4998;51.024;13.828;2024-03-23T15:24:26;3.57;;;1.60;;
9918;SDS011;4998;51.024;13.828;2024-03-23T15:26:52;2.57;;;1.73;;
9918;SDS011;4998;51.024;13.828;2024-03-23T15:29:21;4.63;;;1.63;;
9918;SDS011;4998;51.024;13.828;2024-03-23T15:31:48;2.03;;;1.83;;
9918;SDS011;4998;51.024;13.828;2024-03-23T15:34:18;3.70;;;2.10;;
9918;SDS011;4998;51.024;13.828;2024-03-23T15:36:44;2.00;;;1.50;;
9918;SDS011;4998;51.024;13.828;2024-03-23T15:39:12;5.00;;;1.67;;
9918;SDS011;4998;51.024;13.828;2024-03-23T15:41:39;4.40;;;1.97;;
9918;SDS011;4998;51.024;13.828;2024-03-23T15:44:07;2.43;;;2.23;;
9918;SDS011;4998;51.024;13.828;2024-03-23T15:46:34;13.07;;;9.30;;
9918;SDS011;4998;51.024;13.828;2024-03-23T15:49:02;20.37;;;15.60;;
9918;SDS011;4998;51.024;13.828;2024-03-23T15:51:28;33.53;;;23.60;;